Portada
METAR-TAF:

METAR-TAF

Aeropuertos :

Aeropuerto Internacional de Nuakchot

Nuakchot, Mauritania

latitud: 18-18-36N, longitud: 015-58-11W, altitud: 3 m

Observación

El informe se hizo hace 38 minutos, a las 12:00 UTC
Viento 8 kt del norte-noreste
Temperatura 24°C
Humedad 41%
Presión 1013 hPa
Visibilidad 10 km o más
sin nubes por debajo de 1500 m y sin presencia de cumulonimbus.

METAR: GQNO 151200Z 03008KT CAVOK 24/10 Q1013 NOSIG

Hora: 12:38 (12:38 UTC)

Pronóstico

El informe se hizo hace 1 hora y 38 minutos, a las 11:00 UTC
Pronóstico válido del 15 a las 12 UTC al 16 a las 18 UTC
Viento 10 kt del noreste
Visibilidad: 7000 m
Evolucionando progresivamente
del 15 a las 15 UTC al 15 a las 17 UTC
Viento 14 kt del norte-noroeste

TAF: GQNO 151100Z 1512/1618 04010KT 7000 NSC BECMG 1515/1517 33014KT

Observaciones y pronósticos meteorológicos de más de 4000 aeropuertos (mensajes METAR y TAF).

Los puntos amarillos y rojos representan las estaciones disponibles.

Ponga el ratón en el punto deseado para ver el nombre de la estación.

Haga clic para ver las observaciones y los pronósticos meteorológicos.

Para cambiar el mapa : haga clic en los botones verdes con una cruz de color negro para hacer un zoom, en el botón verde con un guión para alejar o en las flechas verdes para mapas adyacentes.


METAR-TAF: